createdAt,value
2023-04-22T00:02:17.179Z,8.40
2023-04-22T00:04:48.158Z,8.30
2023-04-22T00:07:18.027Z,8.30
2023-04-22T00:09:46.022Z,8.40
2023-04-22T00:12:13.388Z,8.40
2023-04-22T00:14:40.612Z,8.40
2023-04-22T00:17:11.093Z,8.40
2023-04-22T00:19:39.437Z,8.20
2023-04-22T00:22:09.849Z,8.20
2023-04-22T00:24:39.974Z,8.20
2023-04-22T00:27:10.166Z,8.20
2023-04-22T00:29:40.486Z,8.20
2023-04-22T00:32:08.838Z,8.10
2023-04-22T00:34:36.291Z,8.00
2023-04-22T00:37:06.587Z,8.00
2023-04-22T00:39:33.720Z,8.00
2023-04-22T00:42:03.910Z,8.00
2023-04-22T00:44:31.227Z,7.90
2023-04-22T00:46:59.716Z,8.00
2023-04-22T00:49:33.677Z,7.90
2023-04-22T00:52:04.235Z,7.80
2023-04-22T00:54:37.563Z,7.80
2023-04-22T00:57:06.087Z,7.70
2023-04-22T00:59:33.463Z,7.70
2023-04-22T01:02:01.938Z,7.70
2023-04-22T01:04:31.574Z,7.70
2023-04-22T01:07:01.951Z,7.80
2023-04-22T01:09:29.533Z,7.80
2023-04-22T01:11:58.668Z,7.80
2023-04-22T01:14:26.695Z,7.80
2023-04-22T01:16:56.779Z,7.80
2023-04-22T01:19:27.063Z,7.80
2023-04-22T01:21:58.088Z,7.80
2023-04-22T01:24:28.314Z,7.80
2023-04-22T01:26:56.734Z,7.80
2023-04-22T01:29:25.031Z,7.80
2023-04-22T01:31:56.271Z,7.80
2023-04-22T01:34:23.466Z,7.80
2023-04-22T01:36:53.500Z,7.90
2023-04-22T01:39:31.104Z,7.90
2023-04-22T01:41:59.841Z,7.90
2023-04-22T01:44:27.195Z,7.90
2023-04-22T01:46:57.357Z,7.90
2023-04-22T01:49:25.475Z,8.00
2023-04-22T01:51:53.481Z,8.00
2023-04-22T01:54:21.800Z,8.00
2023-04-22T01:56:54.931Z,8.00
2023-04-22T01:59:22.959Z,8.00
2023-04-22T02:01:52.058Z,8.00
2023-04-22T02:04:19.273Z,8.00
2023-04-22T02:06:47.254Z,8.00
2023-04-22T02:09:14.261Z,8.00
2023-04-22T02:11:44.344Z,8.00
2023-04-22T02:14:17.380Z,7.90
2023-04-22T02:16:47.413Z,7.90
2023-04-22T02:19:17.631Z,7.90
2023-04-22T02:21:47.618Z,7.90
2023-04-22T02:24:15.638Z,7.90
2023-04-22T02:26:46.242Z,7.80
2023-04-22T02:29:14.308Z,7.80
2023-04-22T02:31:44.384Z,7.80
2023-04-22T02:34:11.388Z,7.70
2023-04-22T02:36:44.537Z,7.70
2023-04-22T02:39:17.535Z,7.70
2023-04-22T02:41:46.767Z,7.70
2023-04-22T02:44:15.962Z,7.70
2023-04-22T02:46:45.075Z,7.70
2023-04-22T02:49:15.294Z,7.70
2023-04-22T02:51:45.359Z,7.70
2023-04-22T02:54:15.677Z,7.70
2023-04-22T02:56:46.284Z,7.70
2023-04-22T02:59:22.538Z,7.70
2023-04-22T03:01:52.520Z,7.70
2023-04-22T03:04:22.060Z,7.70
2023-04-22T03:06:52.547Z,7.70
2023-04-22T03:09:21.156Z,7.70
2023-04-22T03:11:48.100Z,7.60
2023-04-22T03:14:16.158Z,7.60
2023-04-22T03:16:43.293Z,7.60
2023-04-22T03:19:12.293Z,7.60
2023-04-22T03:21:40.314Z,7.60
2023-04-22T03:24:07.478Z,7.60
2023-04-22T03:26:34.443Z,7.60
2023-04-22T03:29:02.586Z,7.60
2023-04-22T03:31:30.781Z,7.60
2023-04-22T03:33:57.758Z,7.60
2023-04-22T03:36:24.831Z,7.60
2023-04-22T03:38:57.887Z,7.60
2023-04-22T03:41:26.714Z,7.60
2023-04-22T03:43:57.935Z,7.70
2023-04-22T03:46:29.763Z,7.70
2023-04-22T03:48:59.828Z,7.70
2023-04-22T03:51:30.128Z,7.70
2023-04-22T03:53:57.077Z,7.70
2023-04-22T03:56:24.723Z,7.70
2023-04-22T03:58:52.872Z,7.70
2023-04-22T04:01:23.623Z,7.70
2023-04-22T04:03:50.965Z,7.70
2023-04-22T04:06:21.866Z,7.70
2023-04-22T04:08:48.914Z,7.70
2023-04-22T04:11:15.977Z,7.70
2023-04-22T04:13:43.008Z,7.70
2023-04-22T04:16:12.043Z,7.70
2023-04-22T04:18:42.274Z,7.70
2023-04-22T04:21:10.786Z,7.70
2023-04-22T04:23:40.486Z,7.70
2023-04-22T04:26:10.992Z,7.70
2023-04-22T04:28:37.981Z,7.80
2023-04-22T04:31:05.364Z,7.80
2023-04-22T04:33:37.151Z,7.90
2023-04-22T04:36:08.896Z,8.00
2023-04-22T04:38:37.036Z,8.00
2023-04-22T04:41:04.095Z,8.00
2023-04-22T04:43:34.220Z,8.00
2023-04-22T04:46:04.448Z,8.10
2023-04-22T04:48:36.485Z,8.10
2023-04-22T04:51:08.129Z,8.10
2023-04-22T04:53:41.485Z,8.10
2023-04-22T04:56:14.540Z,8.10
2023-04-22T04:58:42.589Z,8.10
2023-04-22T05:01:15.688Z,8.10
2023-04-22T05:03:42.952Z,8.20
2023-04-22T05:06:13.441Z,8.20
2023-04-22T05:08:40.493Z,8.20
2023-04-22T05:11:09.551Z,8.20
2023-04-22T05:13:39.594Z,8.20
2023-04-22T05:16:18.882Z,8.20
2023-04-22T05:18:49.013Z,8.20
2023-04-22T05:21:17.111Z,8.20
2023-04-22T05:23:45.093Z,8.20
2023-04-22T05:26:14.195Z,8.30
2023-04-22T05:28:41.171Z,8.30
2023-04-22T05:31:09.250Z,8.30
2023-04-22T05:33:39.370Z,8.40
2023-04-22T05:36:06.805Z,8.40
2023-04-22T05:38:34.800Z,8.40
2023-04-22T05:41:01.918Z,8.40
2023-04-22T05:43:29.865Z,8.40
2023-04-22T05:46:03.189Z,8.40
2023-04-22T05:48:33.470Z,8.40
2023-04-22T05:51:03.734Z,8.40
2023-04-22T05:53:31.705Z,8.40
2023-04-22T05:56:01.827Z,8.40
2023-04-22T05:58:31.988Z,8.50
2023-04-22T06:00:59.997Z,8.50
2023-04-22T06:03:27.159Z,8.60
2023-04-22T06:05:56.652Z,8.60
2023-04-22T06:08:25.862Z,8.60
2023-04-22T06:10:54.920Z,8.60
2023-04-22T06:13:25.612Z,8.60
2023-04-22T06:15:52.829Z,8.60
2023-04-22T06:18:20.969Z,8.60
2023-04-22T06:20:51.913Z,8.60
2023-04-22T06:23:20.904Z,8.60
2023-04-22T06:25:50.014Z,8.50
2023-04-22T06:28:20.145Z,8.50
2023-04-22T06:30:48.220Z,8.40
2023-04-22T06:33:15.513Z,8.40
2023-04-22T06:35:45.104Z,8.40
2023-04-22T06:38:15.332Z,8.40
2023-04-22T06:40:45.425Z,8.40
2023-04-22T06:43:12.489Z,8.30
2023-04-22T06:45:43.261Z,8.40
2023-04-22T06:48:11.587Z,8.40
2023-04-22T06:50:40.759Z,8.50
2023-04-22T06:53:10.139Z,8.50
2023-04-22T06:55:37.222Z,8.60
2023-04-22T06:58:06.740Z,8.60
2023-04-22T07:00:33.797Z,8.70
2023-04-22T07:03:01.932Z,8.80
2023-04-22T07:05:31.096Z,8.80
2023-04-22T07:08:04.147Z,8.80
2023-04-22T07:10:32.268Z,8.80
2023-04-22T07:13:02.398Z,8.90
2023-04-22T07:15:31.481Z,8.80
2023-04-22T07:17:58.595Z,8.90
2023-04-22T07:20:26.663Z,9.00
2023-04-22T07:22:55.847Z,9.10
2023-04-22T07:25:25.898Z,9.20
2023-04-22T07:27:54.890Z,9.30
2023-04-22T07:30:21.925Z,9.50
2023-04-22T07:32:49.142Z,9.60
2023-04-22T07:35:18.415Z,9.70
2023-04-22T07:37:45.394Z,9.80
2023-04-22T07:40:14.169Z,9.80
2023-04-22T07:42:41.392Z,10.00
2023-04-22T07:45:09.566Z,10.00
2023-04-22T07:47:36.826Z,10.00
2023-04-22T07:50:04.575Z,10.00
2023-04-22T07:52:31.741Z,10.00
2023-04-22T07:54:59.701Z,10.10
2023-04-22T07:57:28.891Z,10.20
2023-04-22T07:59:56.783Z,10.30
2023-04-22T08:02:23.868Z,10.40
2023-04-22T08:04:52.184Z,10.60
2023-04-22T08:09:51.179Z,10.80
2023-04-22T08:12:20.254Z,10.90
2023-04-22T08:14:47.286Z,10.90
2023-04-22T08:17:15.340Z,11.00
2023-04-22T08:19:45.560Z,11.00
2023-04-22T08:22:13.640Z,11.00
2023-04-22T08:24:43.758Z,11.00
2023-04-22T08:27:11.833Z,11.10
2023-04-22T08:29:39.409Z,11.10
2023-04-22T08:32:07.912Z,11.10
2023-04-22T08:34:35.257Z,11.10
2023-04-22T08:37:03.129Z,11.00
2023-04-22T08:39:30.369Z,11.00
2023-04-22T08:42:00.564Z,11.10
2023-04-22T08:44:27.850Z,11.00
2023-04-22T08:46:56.074Z,11.00
2023-04-22T08:49:25.334Z,11.00
2023-04-22T08:51:53.802Z,11.00
2023-04-22T08:54:21.774Z,11.00
2023-04-22T08:56:52.052Z,10.90
2023-04-22T08:59:22.497Z,10.90
2023-04-22T09:01:54.197Z,10.90
2023-04-22T09:04:21.706Z,10.90
2023-04-22T09:06:49.784Z,11.00
2023-04-22T09:09:19.993Z,11.00
2023-04-22T09:11:50.058Z,11.10
2023-04-22T09:14:18.038Z,11.10
2023-04-22T09:16:50.292Z,11.10
2023-04-22T09:19:17.390Z,11.00
2023-04-22T09:21:49.094Z,10.90
2023-04-22T09:24:20.902Z,10.90
2023-04-22T09:26:51.052Z,10.90
2023-04-22T09:29:18.141Z,11.00
2023-04-22T09:31:54.231Z,11.00
2023-04-22T09:34:22.477Z,11.00
2023-04-22T09:36:51.636Z,11.10
2023-04-22T09:39:20.738Z,11.10
2023-04-22T09:41:54.565Z,11.10
2023-04-22T09:44:21.594Z,11.10
2023-04-22T09:46:51.608Z,11.20
2023-04-22T09:49:18.720Z,11.10
2023-04-22T09:51:46.591Z,11.10
2023-04-22T09:54:16.783Z,11.10
2023-04-22T09:56:50.045Z,11.10
2023-04-22T09:59:23.700Z,11.20
2023-04-22T10:02:00.277Z,11.30
2023-04-22T10:04:28.533Z,11.40
2023-04-22T10:06:56.387Z,11.40
2023-04-22T10:09:26.105Z,11.50
2023-04-22T10:11:59.470Z,11.60
2023-04-22T10:14:28.732Z,11.70
2023-04-22T10:17:03.401Z,11.70
2023-04-22T10:19:34.295Z,11.80
2023-04-22T10:22:04.980Z,11.80
2023-04-22T10:24:37.498Z,11.90
2023-04-22T10:27:10.833Z,11.90
2023-04-22T10:29:41.047Z,11.90
2023-04-22T10:32:18.083Z,12.00
2023-04-22T10:34:47.804Z,12.00
2023-04-22T10:37:18.571Z,12.10
2023-04-22T10:40:09.157Z,12.10
2023-04-22T10:42:36.764Z,12.20
2023-04-22T10:45:05.780Z,12.30
2023-04-22T10:47:38.696Z,12.30
2023-04-22T10:50:13.145Z,12.40
2023-04-22T10:52:44.139Z,12.40
2023-04-22T10:55:13.167Z,12.50
2023-04-22T10:57:48.692Z,12.50
2023-04-22T11:00:35.326Z,12.40
2023-04-22T11:03:11.377Z,12.30
2023-04-22T11:05:39.646Z,12.20
2023-04-22T11:08:13.799Z,12.20
2023-04-22T11:10:47.337Z,12.10
2023-04-22T11:13:21.585Z,12.00
2023-04-22T11:15:51.447Z,12.00
2023-04-22T11:18:27.306Z,12.00
2023-04-22T11:20:55.942Z,11.90
2023-04-22T11:23:28.770Z,11.90
2023-04-22T11:26:02.451Z,12.00
2023-04-22T11:28:30.417Z,12.00
2023-04-22T11:31:10.415Z,12.10
2023-04-22T11:33:41.320Z,12.10
2023-04-22T11:36:15.187Z,12.20
2023-04-22T11:38:43.262Z,12.20
2023-04-22T11:41:12.253Z,12.20
2023-04-22T11:43:47.900Z,12.20
2023-04-22T11:46:14.940Z,12.30
2023-04-22T11:48:47.931Z,12.40
2023-04-22T11:51:15.120Z,12.40
2023-04-22T11:53:50.530Z,12.50
2023-04-22T11:56:18.531Z,12.60
2023-04-22T11:58:48.629Z,12.70
2023-04-22T12:01:15.657Z,12.70
2023-04-22T12:03:43.847Z,12.70
2023-04-22T12:06:11.989Z,12.70
2023-04-22T12:08:44.476Z,12.70
2023-04-22T12:11:13.276Z,12.70
2023-04-22T12:13:41.915Z,12.70
2023-04-22T12:16:17.760Z,12.70
2023-04-22T12:18:54.894Z,12.70
2023-04-22T12:21:25.092Z,12.70
2023-04-22T12:23:59.166Z,12.60
2023-04-22T12:26:32.462Z,12.60
2023-04-22T12:29:00.874Z,12.60
2023-04-22T12:31:29.929Z,12.60
2023-04-22T12:33:57.367Z,12.50
2023-04-22T12:36:25.250Z,12.50
2023-04-22T12:38:52.877Z,12.50
2023-04-22T12:41:20.030Z,12.40
2023-04-22T12:43:50.129Z,12.40
2023-04-22T12:46:20.249Z,12.40
2023-04-22T12:48:47.250Z,12.40
2023-04-22T12:51:14.178Z,12.30
2023-04-22T12:53:44.290Z,12.30
2023-04-22T12:56:12.309Z,12.30
2023-04-22T12:58:40.356Z,12.30
2023-04-22T13:01:08.685Z,12.40
2023-04-22T13:03:36.192Z,12.40
2023-04-22T13:06:05.463Z,12.40
2023-04-22T13:08:32.628Z,12.40
2023-04-22T13:11:11.933Z,12.50
2023-04-22T13:13:42.058Z,12.50
2023-04-22T13:16:11.793Z,12.60
2023-04-22T13:18:41.972Z,12.50
2023-04-22T13:21:13.855Z,12.40
2023-04-22T13:23:40.906Z,12.40
2023-04-22T13:26:09.996Z,12.50
2023-04-22T13:28:38.203Z,12.50
2023-04-22T13:31:08.757Z,12.60
2023-04-22T13:33:37.828Z,12.60
2023-04-22T13:36:07.000Z,12.80
2023-04-22T13:38:34.044Z,12.80
2023-04-22T13:41:04.276Z,12.90
2023-04-22T13:43:31.431Z,12.90
2023-04-22T13:46:01.679Z,12.90
2023-04-22T13:48:30.126Z,12.90
2023-04-22T13:50:59.114Z,13.00
2023-04-22T13:53:27.069Z,13.10
2023-04-22T13:55:56.179Z,13.10
2023-04-22T13:58:26.326Z,13.10
2023-04-22T14:00:56.470Z,13.20
2023-04-22T14:03:24.441Z,13.20
2023-04-22T14:05:54.759Z,13.20
2023-04-22T14:08:24.897Z,13.30
2023-04-22T14:10:54.197Z,13.40
2023-04-22T14:13:23.658Z,13.50
2023-04-22T14:15:51.819Z,13.60
2023-04-22T14:18:18.782Z,13.70
2023-04-22T14:20:45.834Z,13.80
2023-04-22T14:23:12.896Z,14.00
2023-04-22T14:25:43.104Z,14.30
2023-04-22T14:28:14.626Z,14.50
2023-04-22T14:30:43.301Z,14.80
2023-04-22T14:33:11.435Z,15.10
2023-04-22T14:35:40.015Z,15.30
2023-04-22T14:38:11.696Z,15.50
2023-04-22T14:40:41.740Z,15.60
2023-04-22T14:43:20.992Z,15.90
2023-04-22T14:45:56.125Z,15.90
2023-04-22T14:48:25.507Z,16.00
2023-04-22T14:50:52.830Z,16.00
2023-04-22T14:53:26.507Z,15.90
2023-04-22T14:55:53.648Z,16.00
2023-04-22T14:58:23.956Z,16.10
2023-04-22T15:00:51.190Z,16.10
2023-04-22T15:03:19.414Z,16.20
2023-04-22T15:05:49.386Z,16.30
2023-04-22T15:08:18.972Z,16.30
2023-04-22T15:10:48.951Z,16.30
2023-04-22T15:13:19.966Z,16.40
2023-04-22T15:15:48.962Z,16.50
2023-04-22T15:18:17.921Z,16.60
2023-04-22T15:20:48.143Z,16.60
2023-04-22T15:23:18.087Z,16.70
2023-04-22T15:25:47.057Z,16.70
2023-04-22T15:28:14.521Z,16.60
2023-04-22T15:30:42.538Z,16.40
2023-04-22T15:33:11.716Z,16.30
2023-04-22T15:35:41.496Z,16.20
2023-04-22T15:38:10.698Z,16.10
2023-04-22T15:40:40.872Z,16.10
2023-04-22T15:43:07.877Z,16.10
2023-04-22T15:45:35.724Z,16.10
2023-04-22T15:48:03.041Z,16.20
2023-04-22T15:50:33.240Z,16.20
2023-04-22T15:53:03.384Z,16.20
2023-04-22T15:55:33.731Z,16.20
2023-04-22T15:58:00.760Z,16.20
2023-04-22T16:00:29.795Z,16.20
2023-04-22T16:02:58.428Z,16.30
2023-04-22T16:05:25.563Z,16.30
2023-04-22T16:07:53.903Z,16.30
2023-04-22T16:10:26.341Z,16.30
2023-04-22T16:12:56.390Z,16.30
2023-04-22T16:15:26.694Z,16.30
2023-04-22T16:17:56.891Z,16.20
2023-04-22T16:20:29.476Z,16.20
2023-04-22T16:23:02.493Z,16.20
2023-04-22T16:25:29.721Z,16.10
2023-04-22T16:27:58.980Z,16.10
2023-04-22T16:30:29.064Z,16.00
2023-04-22T16:32:59.293Z,15.90
2023-04-22T16:35:26.321Z,15.90
2023-04-22T16:37:53.391Z,15.80
2023-04-22T16:40:20.516Z,15.70
2023-04-22T16:42:47.577Z,15.60
2023-04-22T16:45:14.973Z,15.40
2023-04-22T16:47:42.011Z,15.30
2023-04-22T16:50:13.642Z,15.30
2023-04-22T16:52:40.893Z,15.20
2023-04-22T16:55:08.391Z,15.20
2023-04-22T16:57:38.471Z,15.10
2023-04-22T17:00:07.263Z,15.00
2023-04-22T17:02:35.516Z,15.00
2023-04-22T17:05:04.534Z,15.00
2023-04-22T17:07:31.879Z,15.00
2023-04-22T17:09:59.021Z,15.00
2023-04-22T17:12:29.111Z,15.00
2023-04-22T17:14:56.388Z,15.00
2023-04-22T17:17:26.533Z,15.10
2023-04-22T17:19:54.580Z,15.10
2023-04-22T17:22:24.837Z,15.10
2023-04-22T17:24:52.574Z,15.10
2023-04-22T17:27:20.756Z,15.00
2023-04-22T17:29:47.682Z,15.00
2023-04-22T17:32:17.879Z,14.90
2023-04-22T17:34:46.992Z,14.80
2023-04-22T17:37:17.051Z,14.70
2023-04-22T17:39:50.131Z,14.70
2023-04-22T17:42:19.221Z,14.60
2023-04-22T17:44:47.331Z,14.50
2023-04-22T17:47:17.478Z,14.50
2023-04-22T17:49:47.472Z,14.40
2023-04-22T17:52:17.562Z,14.40
2023-04-22T17:54:47.768Z,14.40
2023-04-22T17:57:16.863Z,14.40
2023-04-22T17:59:46.808Z,14.30
2023-04-22T18:02:17.198Z,14.20
2023-04-22T18:04:47.613Z,14.20
2023-04-22T18:07:18.145Z,14.10
2023-04-22T18:09:48.140Z,14.00
2023-04-22T18:12:16.201Z,13.90
2023-04-22T18:14:43.209Z,13.90
2023-04-22T18:17:10.244Z,13.80
2023-04-22T18:19:37.317Z,13.70
2023-04-22T18:22:07.465Z,13.70
2023-04-22T18:24:37.968Z,13.60
2023-04-22T18:27:11.066Z,13.50
2023-04-22T18:29:39.376Z,13.40
2023-04-22T18:32:07.602Z,13.30
2023-04-22T18:34:37.928Z,13.20
2023-04-22T18:37:08.006Z,13.10
2023-04-22T18:39:39.562Z,13.10
2023-04-22T18:42:07.872Z,13.00
2023-04-22T18:44:35.831Z,12.90
2023-04-22T18:47:04.590Z,12.80
2023-04-22T18:49:33.963Z,12.70
2023-04-22T18:52:04.240Z,12.70
2023-04-22T18:54:34.374Z,12.60
2023-04-22T18:57:04.842Z,12.50
2023-04-22T18:59:35.171Z,12.40
2023-04-22T19:02:03.682Z,12.40
2023-04-22T19:04:33.876Z,12.30
2023-04-22T19:07:04.080Z,12.30
2023-04-22T19:09:34.296Z,12.30
2023-04-22T19:12:06.226Z,12.20
2023-04-22T19:14:33.322Z,12.20
2023-04-22T19:17:02.340Z,12.10
2023-04-22T19:19:32.415Z,12.10
2023-04-22T19:22:00.786Z,12.00
2023-04-22T19:24:33.669Z,12.00
2023-04-22T19:27:12.342Z,12.00
2023-04-22T19:29:43.429Z,11.90
2023-04-22T19:32:13.504Z,11.90
2023-04-22T19:34:43.714Z,11.80
2023-04-22T19:37:13.052Z,11.80
2023-04-22T19:39:40.626Z,11.70
2023-04-22T19:42:08.017Z,11.70
2023-04-22T19:44:38.069Z,11.60
2023-04-22T19:47:06.236Z,11.50
2023-04-22T19:49:33.695Z,11.50
2023-04-22T19:52:02.985Z,11.50
2023-04-22T19:54:32.706Z,11.40
2023-04-22T19:57:06.687Z,11.40
2023-04-22T19:59:40.814Z,11.30
2023-04-22T20:02:11.493Z,11.30
2023-04-22T20:04:46.024Z,11.20
2023-04-22T20:07:17.593Z,11.20
2023-04-22T20:09:48.443Z,11.10
2023-04-22T20:12:18.862Z,11.10
2023-04-22T20:14:46.012Z,11.10
2023-04-22T20:17:13.310Z,11.00
2023-04-22T20:19:40.949Z,11.00
2023-04-22T20:22:14.914Z,11.00
2023-04-22T20:24:42.973Z,11.00
2023-04-22T20:27:10.062Z,11.00
2023-04-22T20:29:38.458Z,10.90
2023-04-22T20:32:09.735Z,10.90
2023-04-22T20:34:37.003Z,10.80
2023-04-22T20:37:09.786Z,10.80
2023-04-22T20:39:38.865Z,10.80
2023-04-22T20:42:06.720Z,10.80
2023-04-22T20:44:36.801Z,10.70
2023-04-22T20:47:03.926Z,10.70
2023-04-22T20:49:32.863Z,10.70
2023-04-22T20:52:02.413Z,10.70
2023-04-22T20:54:32.464Z,10.70
2023-04-22T20:57:04.806Z,10.70
2023-04-22T20:59:32.760Z,10.60
2023-04-22T21:02:04.345Z,10.60
2023-04-22T21:04:32.618Z,10.60
2023-04-22T21:07:04.080Z,10.60
2023-04-22T21:09:32.983Z,10.50
2023-04-22T21:12:00.105Z,10.50
2023-04-22T21:14:30.528Z,10.50
2023-04-22T21:17:09.729Z,10.50
2023-04-22T21:19:38.804Z,10.50
2023-04-22T21:22:08.287Z,10.50
2023-04-22T21:24:36.785Z,10.40
2023-04-22T21:27:06.074Z,10.40
2023-04-22T21:29:33.420Z,10.40
2023-04-22T21:32:09.627Z,10.40
2023-04-22T21:34:43.356Z,10.40
2023-04-22T21:37:14.043Z,10.40
2023-04-22T21:39:41.199Z,10.40
2023-04-22T21:42:11.208Z,10.40
2023-04-22T21:44:44.746Z,10.40
2023-04-22T21:47:11.640Z,10.40
2023-04-22T21:49:40.664Z,10.40
2023-04-22T21:52:10.834Z,10.40
2023-04-22T21:54:40.021Z,10.40
2023-04-22T21:57:07.217Z,10.40
2023-04-22T21:59:37.251Z,10.40
2023-04-22T22:02:05.529Z,10.40
2023-04-22T22:04:32.647Z,10.40
2023-04-22T22:07:02.971Z,10.40
2023-04-22T22:09:32.523Z,10.30
2023-04-22T22:11:59.424Z,10.30
2023-04-22T22:14:28.467Z,10.30
2023-04-22T22:16:59.085Z,10.30
2023-04-22T22:19:30.671Z,10.30
2023-04-22T22:21:58.799Z,10.30
2023-04-22T22:24:27.814Z,10.30
2023-04-22T22:26:58.053Z,10.30
2023-04-22T22:29:26.393Z,10.30
2023-04-22T22:31:56.406Z,10.30
2023-04-22T22:34:26.873Z,10.40
2023-04-22T22:36:53.877Z,10.40
2023-04-22T22:39:23.853Z,10.40
2023-04-22T22:41:55.520Z,10.40
2023-04-22T22:44:25.632Z,10.40
2023-04-22T22:46:55.824Z,10.40
2023-04-22T22:49:26.485Z,10.40
2023-04-22T22:51:54.612Z,10.40
2023-04-22T22:54:22.668Z,10.40
2023-04-22T22:56:52.811Z,10.40
2023-04-22T22:59:20.844Z,10.40
2023-04-22T23:01:47.931Z,10.30
2023-04-22T23:04:18.542Z,10.30
2023-04-22T23:06:47.298Z,10.30
2023-04-22T23:09:18.935Z,10.30
2023-04-22T23:11:55.523Z,10.20
2023-04-22T23:14:27.438Z,10.20
2023-04-22T23:16:55.520Z,10.20
2023-04-22T23:19:26.400Z,10.20
2023-04-22T23:21:56.198Z,10.20
2023-04-22T23:24:26.729Z,10.20
2023-04-22T23:26:57.424Z,10.20
2023-04-22T23:29:25.633Z,10.20
2023-04-22T23:31:56.610Z,10.20
2023-04-22T23:34:24.171Z,10.20
2023-04-22T23:36:56.889Z,10.20
2023-04-22T23:39:25.892Z,10.20
2023-04-22T23:41:52.861Z,10.20
2023-04-22T23:44:26.050Z,10.20
2023-04-22T23:46:59.305Z,10.20
2023-04-22T23:49:29.738Z,10.20
2023-04-22T23:51:57.112Z,10.30
2023-04-22T23:54:27.805Z,10.30
2023-04-22T23:56:55.271Z,10.30
2023-04-22T23:59:22.630Z,10.30
